Time;durP1;ratioP1;P1;durP2;ratioP2;P2;SDS_P1;SDS_P2;PMS_P1;PMS_P2;Temp;Humidity;BMP_temperature;BMP_pressure;BME280_temperature;BME280_humidity;BME280_pressure;Samples;Min_cycle;Max_cycle;Signal;HPM_P1;HPM_P2
2021/06/23 00:00:40;;;;;;;12.27;2.47;;;;;;;-144.99;79.85;52329.88;5094982;28;20266;-81
2021/06/23 00:03:07;;;;;;;12.17;4.13;;;;;;;-144.99;79.96;52346.19;5112655;28;20220;-82
2021/06/23 00:05:34;;;;;;;17.40;4.57;;;;;;;-144.99;79.90;52313.56;5111503;28;20308;-82
2021/06/23 00:08:02;;;;;;;12.07;3.00;;;;;;;-144.99;79.96;52350.25;5096414;28;20237;-81
2021/06/23 00:10:29;;;;;;;7.00;3.47;;;;;;;-144.99;80.20;52350.25;5110496;28;20216;-82
2021/06/23 00:13:00;;;;;;;5.97;3.80;;;;;;;-144.99;80.29;52313.56;5093978;28;20297;-79
2021/06/23 00:15:28;;;;;;;9.83;2.50;;;;;;;-144.99;80.61;52348.22;5092942;28;20236;-79
2021/06/23 00:17:55;;;;;;;9.80;3.00;;;;;;;-144.99;80.57;52299.31;5099164;28;20208;-79
2021/06/23 00:20:22;;;;;;;5.07;2.43;;;;;;;-144.99;81.03;52305.41;5108842;28;20287;-77
2021/06/23 00:22:48;;;;;;;11.83;3.77;;;;;;;-144.99;81.33;52321.72;5109738;28;20214;-78
2021/06/23 00:25:16;;;;;;;6.13;2.40;;;;;;;-144.99;81.94;52317.66;5108250;28;20232;-78
2021/06/23 00:27:43;;;;;;;7.23;2.47;;;;;;;-144.99;82.62;52333.94;5106635;28;20238;-78
2021/06/23 00:30:11;;;;;;;9.40;4.57;;;;;;;-144.99;83.16;52333.94;5105979;28;20560;-78
2021/06/23 00:32:42;;;;;;;10.20;4.23;;;;;;;-144.99;83.29;52350.25;5099731;28;20243;-78
2021/06/23 00:35:09;;;;;;;6.70;5.13;;;;;;;-144.99;84.45;52311.53;5111280;28;20396;-78
2021/06/23 00:37:36;;;;;;;8.60;3.37;;;;;;;-144.99;84.55;52305.41;5092087;28;20216;-76
2021/06/23 00:40:04;;;;;;;10.23;3.77;;;;;;;-144.99;84.84;52331.91;5091008;28;20226;-78
2021/06/23 00:42:32;;;;;;;31.63;10.63;;;;;;;-144.99;84.93;52317.66;5092460;28;20205;-77
2021/06/23 00:44:59;;;;;;;10.57;4.53;;;;;;;-144.99;85.19;52321.72;5091518;28;20847;-78
2021/06/23 00:47:26;;;;;;;10.97;4.70;;;;;;;-144.99;85.30;52321.72;5091609;28;20292;-79
2021/06/23 00:49:54;;;;;;;6.73;3.77;;;;;;;-144.99;85.60;52305.41;5095141;28;20223;-78
2021/06/23 00:52:21;;;;;;;14.20;3.07;;;;;;;-144.99;85.80;52350.25;5100719;28;20283;-79
2021/06/23 00:54:50;;;;;;;5.87;2.87;;;;;;;-144.99;85.81;52329.88;5109522;28;20324;-81
2021/06/23 00:57:18;;;;;;;6.40;3.33;;;;;;;-144.99;85.95;52333.94;5110759;28;20687;-79
2021/06/23 00:59:50;;;;;;;14.00;5.43;;;;;;;-144.99;86.11;52350.25;5113218;28;20232;-79
2021/06/23 01:02:19;;;;;;;8.63;3.67;;;;;;;-144.99;86.07;52289.13;5100978;28;20239;-78
2021/06/23 01:04:47;;;;;;;9.97;3.83;;;;;;;-144.99;86.15;52325.81;5091675;28;20237;-79
2021/06/23 01:07:14;;;;;;;10.03;5.00;;;;;;;-144.99;86.33;52329.88;5091927;28;20218;-79
2021/06/23 01:09:41;;;;;;;11.23;4.67;;;;;;;-144.99;86.35;52358.41;5091181;28;20230;-78
2021/06/23 01:12:30;;;;;;;10.13;4.50;;;;;;;-144.99;86.32;52336.00;5091027;28;20267;-77
2021/06/23 01:14:59;;;;;;;12.97;3.90;;;;;;;-144.99;86.31;52319.69;5091599;28;20806;-79
2021/06/23 01:17:28;;;;;;;14.40;4.73;;;;;;;-144.99;86.62;52338.03;5102774;28;20209;-78
2021/06/23 01:20:07;;;;;;;7.50;2.77;;;;;;;-144.99;86.67;52315.59;5111745;28;20641;-79
2021/06/23 01:22:38;;;;;;;7.27;3.47;;;;;;;-144.99;86.84;52325.81;5111101;27;20204;-78
2021/06/23 01:25:08;;;;;;;12.37;3.60;;;;;;;-144.99;87.21;52325.81;5100664;28;20307;-77
2021/06/23 01:27:35;;;;;;;7.57;3.17;;;;;;;-144.99;87.18;52321.72;5092514;28;20221;-77
2021/06/23 01:30:02;;;;;;;9.17;5.03;;;;;;;-144.99;87.25;52309.50;5091623;28;20297;-76
2021/06/23 01:32:29;;;;;;;13.20;6.33;;;;;;;-144.99;87.79;52309.50;5091941;28;20428;-78
2021/06/23 01:34:55;;;;;;;12.10;4.27;;;;;;;-144.99;87.66;52309.50;5097667;28;20261;-77
2021/06/23 01:37:22;;;;;;;21.10;4.27;;;;;;;-144.99;87.88;52370.63;5092637;28;20220;-76
2021/06/23 01:39:50;;;;;;;9.40;3.63;;;;;;;-144.99;87.99;52285.03;5090532;28;20859;-76
2021/06/23 01:42:17;;;;;;;10.03;3.63;;;;;;;-144.99;88.07;52305.41;5091700;28;20217;-76
2021/06/23 01:44:43;;;;;;;6.07;2.73;;;;;;;-144.99;88.44;52336.00;5093108;28;20308;-77
2021/06/23 01:47:10;;;;;;;13.10;4.03;;;;;;;-144.99;88.50;52338.03;5104021;28;20796;-77
2021/06/23 01:49:37;;;;;;;8.73;3.80;;;;;;;-144.99;88.79;52329.88;5090613;28;20226;-77
2021/06/23 01:52:05;;;;;;;9.60;5.33;;;;;;;-144.99;89.21;52321.72;5095305;28;20261;-76
2021/06/23 01:54:32;;;;;;;7.13;3.57;;;;;;;-144.99;89.57;52327.84;5110020;28;20307;-77
2021/06/23 01:57:00;;;;;;;16.67;5.77;;;;;;;-144.99;89.58;52303.38;5106936;28;20211;-76
2021/06/23 01:59:27;;;;;;;8.13;3.67;;;;;;;-144.99;89.65;52325.81;5095656;28;20229;-77
2021/06/23 02:02:05;;;;;;;9.63;3.80;;;;;;;-144.99;89.77;52333.94;5091595;28;20560;-74
2021/06/23 02:04:47;;;;;;;6.33;3.53;;;;;;;-144.99;89.78;52321.72;5092598;28;20681;-75
2021/06/23 02:07:28;;;;;;;14.03;4.77;;;;;;;-144.99;90.56;52350.25;5099106;28;20585;-76
2021/06/23 02:10:15;;;;;;;10.87;4.73;;;;;;;-144.99;91.14;52299.31;5093235;28;20275;-76
2021/06/23 02:13:08;;;;;;;11.90;7.27;;;;;;;-144.99;91.44;52338.03;5090706;28;20356;-75
2021/06/23 02:15:35;;;;;;;8.77;3.60;;;;;;;-144.99;91.80;52313.56;5086489;28;20259;-76
2021/06/23 02:18:06;;;;;;;8.20;5.00;;;;;;;-144.99;91.73;52354.34;5091022;28;20663;-77
2021/06/23 02:20:34;;;;;;;9.90;4.00;;;;;;;-144.99;91.62;52309.50;5097000;28;20823;-76
2021/06/23 02:23:04;;;;;;;7.33;4.77;;;;;;;-144.99;91.76;52342.09;5108486;28;20288;-75
2021/06/23 02:25:31;;;;;;;7.80;4.43;;;;;;;-144.99;91.75;52313.56;5096114;28;20304;-76
2021/06/23 02:28:00;;;;;;;9.77;5.77;;;;;;;-144.99;91.63;52317.66;5101022;28;20398;-75
2021/06/23 02:30:27;;;;;;;13.67;4.40;;;;;;;-144.99;91.90;52309.50;5105410;28;20324;-77
2021/06/23 02:32:56;;;;;;;15.37;7.80;;;;;;;-144.99;92.30;52325.81;5102029;28;20261;-76
2021/06/23 02:35:24;;;;;;;12.70;4.27;;;;;;;-144.99;92.20;52309.50;5094309;28;20234;-76
2021/06/23 02:37:51;;;;;;;7.50;4.07;;;;;;;-144.99;92.30;52303.38;5092155;28;20336;-74
2021/06/23 02:40:19;;;;;;;16.80;5.80;;;;;;;-144.99;92.54;52264.66;5090512;28;20295;-74
2021/06/23 02:42:47;;;;;;;14.70;6.17;;;;;;;-144.99;92.65;52317.66;5090656;28;20612;-73
2021/06/23 02:45:16;;;;;;;7.37;3.83;;;;;;;-144.99;93.00;52313.56;5090225;28;20226;-77
2021/06/23 02:47:43;;;;;;;7.37;4.27;;;;;;;-144.99;92.89;52285.03;5090530;28;20465;-76
2021/06/23 02:50:10;;;;;;;9.10;4.93;;;;;;;-144.99;92.85;52325.81;5113380;28;20229;-76
2021/06/23 02:52:38;;;;;;;11.67;5.20;;;;;;;-144.99;92.79;52325.81;5119767;28;20200;-78
2021/06/23 02:55:06;;;;;;;12.20;4.27;;;;;;;-144.99;92.81;52325.81;5118242;28;20311;-77
2021/06/23 02:57:34;;;;;;;9.13;5.07;;;;;;;-144.99;92.82;52313.56;5106335;28;20586;-77
2021/06/23 03:00:03;;;;;;;12.00;5.43;;;;;;;-144.99;93.16;52319.69;5089664;28;20260;-78
2021/06/23 03:02:31;;;;;;;9.83;4.70;;;;;;;-144.99;93.15;52285.03;5090024;28;20268;-76
2021/06/23 03:04:58;;;;;;;12.03;5.83;;;;;;;-144.99;93.44;52305.41;5089907;28;20259;-77
2021/06/23 03:07:24;;;;;;;15.43;7.87;;;;;;;-144.99;93.50;52325.81;5090743;28;20223;-76
2021/06/23 03:09:51;;;;;;;10.27;4.07;;;;;;;-144.99;93.78;52321.72;5089661;28;20221;-76
2021/06/23 03:12:18;;;;;;;21.70;5.87;;;;;;;-144.99;93.87;52272.81;5092013;28;20288;-76
2021/06/23 03:14:45;;;;;;;9.17;5.10;;;;;;;-144.99;93.99;52358.41;5094019;28;20229;-76
2021/06/23 03:17:11;;;;;;;13.27;4.90;;;;;;;-144.99;94.27;52301.34;5099765;28;20632;-77
2021/06/23 03:19:39;;;;;;;13.97;5.30;;;;;;;-144.99;94.39;52317.66;5094310;28;20238;-76
2021/06/23 03:22:07;;;;;;;12.47;5.13;;;;;;;-144.99;94.67;52301.34;5110591;27;20251;-77
2021/06/23 03:24:37;;;;;;;8.57;4.77;;;;;;;-144.99;94.76;52305.41;5110880;28;20220;-78
2021/06/23 03:27:05;;;;;;;12.03;6.83;;;;;;;-144.99;94.62;52329.88;5103680;28;20235;-75
2021/06/23 03:29:33;;;;;;;14.07;5.67;;;;;;;-144.99;94.42;52342.09;5101830;28;20203;-79
2021/06/23 03:32:03;;;;;;;13.30;4.87;;;;;;;-144.99;94.53;52325.81;5101920;28;20220;-78
2021/06/23 03:34:30;;;;;;;10.80;4.17;;;;;;;-144.99;94.99;52313.56;5106261;28;20236;-78
2021/06/23 03:36:58;;;;;;;10.10;6.10;;;;;;;-144.99;94.88;52293.19;5111880;28;20640;-79
2021/06/23 03:39:24;;;;;;;18.93;4.63;;;;;;;-144.99;95.19;52317.66;5114746;28;20718;-79
2021/06/23 03:41:51;;;;;;;15.73;4.13;;;;;;;-144.99;95.57;52293.19;5096313;28;20301;-77
2021/06/23 03:44:18;;;;;;;7.93;3.80;;;;;;;-144.99;95.87;52350.25;5094125;28;20236;-79
2021/06/23 03:46:45;;;;;;;22.87;7.07;;;;;;;-144.99;95.63;52325.81;5094867;28;20219;-79
2021/06/23 03:49:12;;;;;;;7.60;5.07;;;;;;;-144.99;95.93;52331.91;5114587;28;20628;-79
2021/06/23 03:51:39;;;;;;;10.37;4.47;;;;;;;-144.99;95.91;52297.25;5097465;28;20228;-79
2021/06/23 03:54:08;;;;;;;22.33;5.77;;;;;;;-144.99;96.00;52305.41;5115046;28;20315;-81
2021/06/23 03:56:34;;;;;;;11.90;3.83;;;;;;;-144.99;96.26;52297.25;5102185;28;20230;-81
2021/06/23 03:59:01;;;;;;;11.80;5.03;;;;;;;-144.99;96.23;52315.59;5118244;28;20211;-80
2021/06/23 04:01:28;;;;;;;13.97;4.17;;;;;;;-144.99;96.07;52268.72;5099838;28;20270;-81
2021/06/23 04:03:54;;;;;;;15.03;5.27;;;;;;;-144.99;96.21;52287.06;5101338;28;20205;-81
2021/06/23 04:06:21;;;;;;;12.60;4.30;;;;;;;-144.99;96.30;52333.94;5097184;28;20437;-81
2021/06/23 04:08:48;;;;;;;12.10;3.87;;;;;;;-144.99;96.40;52329.88;5098419;28;20216;-81
2021/06/23 04:11:16;;;;;;;9.33;4.03;;;;;;;-144.99;96.53;52313.56;5096877;28;20212;-81
2021/06/23 04:13:42;;;;;;;20.20;4.40;;;;;;;-144.99;96.70;52297.25;5099449;28;20204;-80
2021/06/23 04:16:09;;;;;;;13.60;4.60;;;;;;;-144.99;96.45;52313.56;5110726;28;20291;-81
2021/06/23 04:18:36;;;;;;;11.70;4.50;;;;;;;-144.99;96.60;52321.72;5095211;28;20220;-78
2021/06/23 04:21:03;;;;;;;12.60;3.63;;;;;;;-144.99;96.37;52297.25;5107796;28;20786;-74
2021/06/23 04:23:29;;;;;;;6.90;4.10;;;;;;;-144.99;96.14;52331.91;5107174;28;20230;-73
2021/06/23 04:25:56;;;;;;;9.77;3.63;;;;;;;-144.99;96.04;52270.78;5101781;28;20224;-73
2021/06/23 04:28:24;;;;;;;14.73;3.00;;;;;;;-144.99;95.79;52299.31;5091263;28;20238;-73
2021/06/23 04:30:51;;;;;;;12.00;4.47;;;;;;;-144.99;95.84;52321.72;5100762;28;20490;-72
2021/06/23 04:33:17;;;;;;;10.30;4.23;;;;;;;-144.99;95.65;52297.25;5103991;28;20221;-72
2021/06/23 04:35:44;;;;;;;8.00;4.87;;;;;;;-144.99;95.63;52350.25;5117242;22;20308;-75
2021/06/23 04:38:11;;;;;;;19.57;7.77;;;;;;;-144.99;95.41;52333.94;5112277;28;20205;-76
2021/06/23 04:40:40;;;;;;;13.50;6.43;;;;;;;-144.99;95.28;52305.41;5115612;28;20228;-75
2021/06/23 04:43:07;;;;;;;7.10;4.03;;;;;;;-144.99;94.96;52333.94;5115741;28;20228;-75
2021/06/23 04:45:36;;;;;;;10.63;4.80;;;;;;;-144.99;94.94;52297.25;5101881;28;20241;-75
2021/06/23 04:48:03;;;;;;;18.57;4.67;;;;;;;-144.99;95.11;52305.41;5095096;28;20228;-76
2021/06/23 04:50:30;;;;;;;14.97;6.17;;;;;;;-144.99;94.91;52321.72;5095367;28;20300;-73
2021/06/23 04:52:57;;;;;;;9.10;3.47;;;;;;;-144.99;94.74;52309.50;5088305;28;20250;-74
2021/06/23 04:55:24;;;;;;;9.40;3.07;;;;;;;-144.99;94.81;52293.19;5095779;28;20230;-73
2021/06/23 04:57:51;;;;;;;9.00;2.80;;;;;;;-144.99;94.22;52336.00;5096377;28;20773;-74
2021/06/23 05:00:20;;;;;;;13.10;3.77;;;;;;;-144.99;94.15;52293.19;5094570;28;20272;-74
2021/06/23 05:02:49;;;;;;;10.33;4.87;;;;;;;-144.99;93.99;52303.38;4388638;28;10000519;-74
2021/06/23 05:05:15;;;;;;;15.10;4.00;;;;;;;-144.99;93.80;52268.72;5091089;28;20255;-75
2021/06/23 05:07:42;;;;;;;7.90;3.77;;;;;;;-144.99;93.33;52317.66;5091325;28;20306;-73
2021/06/23 05:10:10;;;;;;;17.40;4.23;;;;;;;-144.99;93.05;52280.97;5090843;28;20203;-73
2021/06/23 05:12:38;;;;;;;13.43;3.70;;;;;;;-144.99;92.97;52297.25;5091642;28;20226;-73
2021/06/23 05:15:06;;;;;;;19.57;5.20;;;;;;;-144.99;92.80;52289.13;5089258;28;20250;-73
2021/06/23 05:17:33;;;;;;;9.00;4.43;;;;;;;-144.99;91.98;52280.97;5090313;28;20239;-73
2021/06/23 05:20:01;;;;;;;12.70;5.10;;;;;;;-144.99;91.82;52297.25;5091406;28;20196;-74
2021/06/23 05:22:28;;;;;;;15.50;3.87;;;;;;;-144.99;91.41;52244.28;5090461;28;20259;-75
2021/06/23 05:24:55;;;;;;;8.03;2.53;;;;;;;-144.99;90.97;52244.28;5089978;28;21011;-73
2021/06/23 05:27:22;;;;;;;14.40;3.97;;;;;;;-144.99;90.49;52352.28;5091124;28;20216;-74
2021/06/23 05:29:49;;;;;;;11.50;4.00;;;;;;;-144.99;90.41;52264.66;5091409;28;20268;-74
2021/06/23 05:32:16;;;;;;;18.47;4.23;;;;;;;-144.99;89.80;52276.88;5092280;28;20222;-75
2021/06/23 05:34:44;;;;;;;7.67;3.67;;;;;;;-144.99;89.90;52252.44;5090166;28;20792;-75
2021/06/23 05:37:12;;;;;;;13.03;4.60;;;;;;;-144.99;89.86;52260.56;5090777;28;20220;-77
2021/06/23 05:39:39;;;;;;;8.97;3.90;;;;;;;-144.99;89.39;52256.50;5091304;28;20258;-74
2021/06/23 05:42:07;;;;;;;8.30;5.27;;;;;;;-144.99;89.14;52252.44;5092026;28;20292;-74
2021/06/23 05:44:33;;;;;;;7.87;4.00;;;;;;;-144.99;89.07;52285.03;5092144;28;20250;-73
2021/06/23 05:47:01;;;;;;;10.27;3.57;;;;;;;-144.99;88.97;52272.81;5089432;28;20299;-74
2021/06/23 05:49:28;;;;;;;15.10;4.83;;;;;;;-144.99;88.46;52301.34;5089565;28;20208;-75
2021/06/23 05:51:54;;;;;;;11.90;4.20;;;;;;;-144.99;88.47;52276.88;5087112;28;20345;-74
2021/06/23 05:54:23;;;;;;;18.40;8.43;;;;;;;-144.99;87.92;52307.47;5090326;28;20306;-74
2021/06/23 05:56:50;;;;;;;12.27;5.73;;;;;;;-144.99;88.07;52254.47;5090910;28;20196;-73
2021/06/23 05:59:17;;;;;;;11.87;5.10;;;;;;;-144.99;87.79;52248.34;5089391;28;20855;-74
2021/06/23 06:01:43;;;;;;;8.80;3.13;;;;;;;-144.99;87.76;52299.31;5089027;28;20231;-74
2021/06/23 06:04:10;;;;;;;9.77;4.40;;;;;;;-144.99;87.72;52252.44;5084703;28;20228;-73
2021/06/23 06:06:37;;;;;;;10.03;3.37;;;;;;;-144.99;86.58;52280.97;5088776;28;20242;-73
2021/06/23 06:09:04;;;;;;;9.43;3.33;;;;;;;-144.99;85.95;52285.03;5090513;28;20704;-72
2021/06/23 06:11:32;;;;;;;10.10;2.93;;;;;;;-144.99;85.77;52264.66;5090437;28;20216;-73
2021/06/23 06:14:00;;;;;;;12.53;4.60;;;;;;;-144.99;85.31;52272.81;5090063;28;20581;-75
2021/06/23 06:16:26;;;;;;;17.67;3.93;;;;;;;-144.99;85.38;52264.66;5089698;28;21272;-74
2021/06/23 06:18:56;;;;;;;10.77;2.80;;;;;;;-144.99;85.46;52264.66;5090208;28;20544;-74
2021/06/23 06:21:23;;;;;;;6.43;2.63;;;;;;;-144.99;85.38;52252.44;5085914;28;20651;-74
2021/06/23 06:23:50;;;;;;;6.80;2.80;;;;;;;-144.99;84.56;52317.66;5091294;28;20204;-74
2021/06/23 06:26:18;;;;;;;9.80;3.07;;;;;;;-144.99;84.19;52289.13;5091608;28;20291;-74
2021/06/23 06:28:46;;;;;;;7.30;3.23;;;;;;;-144.99;84.12;52289.13;5091907;28;20220;-75
2021/06/23 06:31:13;;;;;;;8.23;2.70;;;;;;;-144.99;83.57;52272.81;5089752;28;20208;-75
2021/06/23 06:33:40;;;;;;;23.93;6.63;;;;;;;-144.99;83.48;52262.63;5090587;28;20307;-74
2021/06/23 06:36:07;;;;;;;8.03;3.63;;;;;;;-144.99;83.25;52270.78;5089922;28;20243;-73
2021/06/23 06:38:34;;;;;;;10.70;3.30;;;;;;;-144.99;83.16;52301.34;5090682;28;20252;-73
2021/06/23 06:41:02;;;;;;;8.03;4.20;;;;;;;-144.99;83.17;52264.66;5089681;28;20219;-73
2021/06/23 06:43:29;;;;;;;9.33;3.23;;;;;;;-144.99;82.95;52299.31;5089372;28;20290;-74
2021/06/23 06:45:57;;;;;;;4.50;2.83;;;;;;;-144.99;82.78;52252.44;5089609;28;20627;-73
2021/06/23 06:48:24;;;;;;;8.87;3.77;;;;;;;-144.99;82.70;52297.25;5092277;28;20288;-75
2021/06/23 06:50:52;;;;;;;6.53;3.03;;;;;;;-144.99;82.87;52313.56;5093005;28;20220;-75
2021/06/23 06:53:19;;;;;;;11.43;4.40;;;;;;;-144.99;82.78;52266.69;5093743;28;20315;-74
2021/06/23 06:55:46;;;;;;;10.63;4.07;;;;;;;-144.99;82.83;52252.44;5091969;28;20235;-74
2021/06/23 06:58:13;;;;;;;8.27;4.00;;;;;;;-144.99;82.78;52244.28;5092554;28;20298;-74
2021/06/23 07:00:41;;;;;;;8.67;4.13;;;;;;;-144.99;82.29;52276.88;5094407;28;20269;-73
2021/06/23 07:03:09;;;;;;;7.67;4.37;;;;;;;-144.99;82.47;52252.44;5095302;28;20558;-74
2021/06/23 07:05:37;;;;;;;10.40;3.13;;;;;;;-144.99;82.68;52236.13;5094179;28;20232;-75
2021/06/23 07:08:04;;;;;;;6.50;3.40;;;;;;;-144.99;82.26;52268.72;5094518;28;20220;-74
2021/06/23 07:10:31;;;;;;;13.10;6.53;;;;;;;-144.99;82.14;52252.44;5093863;28;20204;-75
2021/06/23 07:12:58;;;;;;;13.50;4.50;;;;;;;-144.99;82.05;52285.03;5092883;28;20265;-75
2021/06/23 07:15:25;;;;;;;14.93;7.30;;;;;;;-144.99;81.35;52309.50;5093214;28;20244;-75
2021/06/23 07:17:53;;;;;;;14.13;7.00;;;;;;;-144.99;81.48;52289.13;5091921;28;20219;-75
2021/06/23 07:20:21;;;;;;;9.60;5.13;;;;;;;-144.99;81.67;52260.56;5092353;28;20586;-73
2021/06/23 07:22:48;;;;;;;8.80;4.40;;;;;;;-144.99;81.73;52262.63;5093946;28;20220;-75
2021/06/23 07:25:16;;;;;;;13.97;6.00;;;;;;;-144.99;81.73;52223.88;5092620;28;20231;-75
2021/06/23 07:27:43;;;;;;;10.80;4.30;;;;;;;-144.99;81.59;52278.91;5079023;28;20311;-76
2021/06/23 07:30:11;;;;;;;13.70;6.70;;;;;;;-144.99;81.72;52293.19;5092969;28;20287;-75
2021/06/23 07:32:46;;;;;;;12.23;4.43;;;;;;;-144.99;81.68;52313.56;5093235;28;20291;-74
2021/06/23 07:37:51;;;;;;;7.30;3.63;;;;;;;-144.99;81.91;52260.56;5093434;28;20265;-76
2021/06/23 07:40:22;;;;;;;10.27;4.07;;;;;;;-144.99;82.11;52252.44;5092431;28;20224;-75
2021/06/23 07:42:48;;;;;;;11.00;3.67;;;;;;;-144.99;82.06;52260.56;5091692;28;20231;-75
2021/06/23 07:45:15;;;;;;;9.57;4.40;;;;;;;-144.99;81.33;52305.41;5091636;28;20732;-76
2021/06/23 07:47:43;;;;;;;19.13;4.50;;;;;;;-144.99;80.59;52268.72;5092354;28;20208;-75
2021/06/23 07:50:12;;;;;;;7.97;4.23;;;;;;;-144.99;80.89;52246.31;5089925;28;20205;-74
2021/06/23 07:52:46;;;;;;;16.83;5.73;;;;;;;-144.99;80.81;52293.19;5082450;28;20586;-74
2021/06/23 08:09:23;;;;;;;8.77;3.87;;;;;;;-144.99;76.43;52260.56;5091344;28;20261;-75
2021/06/23 08:12:05;;;;;;;6.73;4.50;;;;;;;-144.99;76.65;52213.69;5094855;28;20211;-75
2021/06/23 08:14:32;;;;;;;10.17;4.47;;;;;;;-144.99;76.81;52268.72;5080669;28;20256;-75
2021/06/23 08:16:59;;;;;;;16.20;3.90;;;;;;;-144.99;76.25;52215.75;5092643;28;20292;-74
2021/06/23 08:19:26;;;;;;;11.30;3.47;;;;;;;-144.99;76.27;52264.66;5093055;28;20277;-75
2021/06/23 08:21:53;;;;;;;9.97;3.33;;;;;;;-144.99;76.21;52244.28;5094381;28;20259;-75
2021/06/23 08:24:20;;;;;;;12.73;4.77;;;;;;;-144.99;75.71;52227.97;5093154;28;20225;-74
2021/06/23 08:26:46;;;;;;;8.07;4.20;;;;;;;-144.99;75.12;52223.88;5092481;28;20281;-76
2021/06/23 08:29:14;;;;;;;11.33;3.97;;;;;;;-144.99;74.49;52211.66;5090877;28;20237;-75
2021/06/23 08:31:42;;;;;;;7.70;4.70;;;;;;;-144.99;75.03;52240.19;5086024;28;20204;-75
2021/06/23 08:34:08;;;;;;;8.87;3.50;;;;;;;-144.99;74.84;52252.44;5093314;28;20244;-75
2021/06/23 08:36:35;;;;;;;10.80;3.97;;;;;;;-144.99;75.19;52280.97;5094069;28;20211;-73
2021/06/23 08:39:02;;;;;;;7.00;3.20;;;;;;;-144.99;76.25;52276.88;5093169;28;20224;-75
2021/06/23 08:41:29;;;;;;;13.33;3.67;;;;;;;-144.99;76.41;52266.69;5093886;28;20224;-74
2021/06/23 08:43:59;;;;;;;9.33;4.23;;;;;;;-144.99;76.39;52260.56;5094104;28;20299;-75
2021/06/23 08:46:29;;;;;;;9.67;3.70;;;;;;;-144.99;75.79;52256.50;5094296;28;20208;-75
2021/06/23 08:48:56;;;;;;;11.73;3.50;;;;;;;-144.99;74.96;52240.19;5094678;28;20303;-74
2021/06/23 08:51:26;;;;;;;9.00;3.20;;;;;;;-144.99;73.63;52248.34;5094397;28;20307;-75
2021/06/23 08:53:52;;;;;;;7.07;3.27;;;;;;;-144.99;73.13;52242.22;5089048;28;20216;-75
2021/06/23 08:56:19;;;;;;;12.63;5.10;;;;;;;-144.99;72.94;52252.44;5094933;28;20822;-75
2021/06/23 08:58:46;;;;;;;7.20;3.17;;;;;;;-144.99;72.01;52264.66;5096151;28;20212;-74
2021/06/23 09:01:13;;;;;;;5.33;3.03;;;;;;;-144.99;71.46;52232.03;5095605;28;20243;-75
2021/06/23 09:04:04;;;;;;;4.77;2.30;;;;;;;-144.99;70.70;52227.97;5089396;28;20842;-73
2021/06/23 09:06:45;;;;;;;9.13;3.80;;;;;;;-144.99;69.16;52219.81;5094715;28;20265;-75
2021/06/23 09:09:20;;;;;;;10.33;2.90;;;;;;;-144.99;69.15;52232.03;5093374;28;20212;-73
2021/06/23 09:11:48;;;;;;;9.33;3.63;;;;;;;-144.99;69.50;52246.31;5094765;28;20265;-74
2021/06/23 09:14:17;;;;;;;6.73;3.20;;;;;;;-144.99;68.03;52191.28;5094394;28;20245;-75
2021/06/23 09:17:07;;;;;;;10.17;4.17;;;;;;;-144.99;67.56;52181.09;5096160;28;20209;-76
2021/06/23 09:19:37;;;;;;;7.00;3.67;;;;;;;-144.99;66.74;52179.06;5085543;28;20236;-76
2021/06/23 09:22:04;;;;;;;6.47;3.17;;;;;;;-144.99;66.28;52170.91;5090826;28;20280;-76
2021/06/23 09:24:36;;;;;;;11.27;3.97;;;;;;;-144.99;65.23;52183.13;5092749;28;20230;-76
2021/06/23 09:27:19;;;;;;;8.60;3.40;;;;;;;-144.99;64.41;52177.00;5091818;28;20215;-76
2021/06/23 09:29:46;;;;;;;5.67;2.83;;;;;;;-144.99;64.27;52187.19;5093021;28;20748;-76
2021/06/23 09:32:13;;;;;;;8.03;3.93;;;;;;;-144.99;64.16;52174.97;5093413;28;20663;-76
2021/06/23 09:34:45;;;;;;;8.57;2.97;;;;;;;-144.99;63.26;52193.31;5092716;28;20243;-75
2021/06/23 09:37:27;;;;;;;8.37;3.27;;;;;;;-144.99;63.35;52213.69;5092858;28;20239;-76
2021/06/23 09:40:14;;;;;;;10.07;3.53;;;;;;;-144.99;62.79;52203.50;5092650;28;20445;-77
2021/06/23 09:42:42;;;;;;;7.00;3.13;;;;;;;-144.99;61.39;52158.66;5093090;28;20228;-76
2021/06/23 09:45:11;;;;;;;10.00;3.73;;;;;;;-144.99;61.52;52158.66;5091516;28;20689;-76
2021/06/23 09:47:39;;;;;;;9.40;3.23;;;;;;;-144.99;61.86;52195.34;5092743;28;20207;-75
2021/06/23 09:50:09;;;;;;;14.83;5.30;;;;;;;-144.99;60.76;52134.22;5092626;28;20294;-76
2021/06/23 09:52:36;;;;;;;8.30;3.43;;;;;;;-144.99;59.14;52130.13;5087542;28;20204;-77
2021/06/23 09:55:05;;;;;;;6.03;2.80;;;;;;;-144.99;57.11;52158.66;5086280;28;20230;-76
2021/06/23 09:57:34;;;;;;;12.57;4.20;;;;;;;-144.99;55.97;52162.75;5091499;28;20652;-75
2021/06/23 10:00:09;;;;;;;8.03;3.20;;;;;;;-144.99;55.46;52158.66;5092514;28;20248;-76
2021/06/23 10:02:36;;;;;;;8.70;5.17;;;;;;;-144.99;55.85;52166.81;5090748;28;20318;-76
2021/06/23 10:05:23;;;;;;;9.17;3.77;;;;;;;-144.99;55.91;52146.44;5093844;28;20321;-76
2021/06/23 10:07:53;;;;;;;9.90;3.37;;;;;;;-144.99;56.32;52215.75;5093952;28;20285;-76
2021/06/23 10:10:23;;;;;;;9.10;3.87;;;;;;;-144.99;56.42;52174.97;5093415;28;20214;-76
2021/06/23 10:12:52;;;;;;;6.07;3.27;;;;;;;-144.99;55.89;52140.31;5090895;28;20214;-76
2021/06/23 10:15:19;;;;;;;4.43;2.53;;;;;;;-144.99;56.75;52095.50;5088456;28;20270;-78
2021/06/23 10:17:47;;;;;;;9.03;3.17;;;;;;;-144.99;55.87;52130.13;5088751;28;20217;-74
2021/06/23 10:20:15;;;;;;;8.77;3.13;;;;;;;-144.99;55.44;52121.97;5083186;28;20197;-76
2021/06/23 10:22:43;;;;;;;11.40;4.10;;;;;;;-144.99;54.54;52099.56;5089436;28;20232;-76
2021/06/23 10:25:15;;;;;;;8.57;3.30;;;;;;;-144.99;54.34;52109.75;5087770;28;20234;-78
2021/06/23 10:27:43;;;;;;;7.90;4.37;;;;;;;-144.99;53.31;52099.56;5078736;28;20393;-76
2021/06/23 10:30:12;;;;;;;6.97;2.60;;;;;;;-144.99;51.35;52115.88;5094111;28;20601;-75
2021/06/23 10:32:39;;;;;;;6.43;2.40;;;;;;;-144.99;49.85;52085.31;5094291;28;20207;-76
2021/06/23 10:35:07;;;;;;;6.57;2.60;;;;;;;-144.99;49.95;52134.22;5092240;28;20244;-77
2021/06/23 10:37:36;;;;;;;7.83;3.47;;;;;;;-144.99;50.25;52130.13;5092100;28;20295;-77
2021/06/23 10:40:05;;;;;;;5.77;2.57;;;;;;;-144.99;50.18;52130.13;5091162;28;20297;-77
2021/06/23 10:42:34;;;;;;;5.93;2.70;;;;;;;-144.99;51.89;52126.06;5091449;28;20253;-77
2021/06/23 10:45:00;;;;;;;13.93;3.90;;;;;;;-144.99;53.42;52172.94;5091510;28;20235;-77
2021/06/23 10:47:33;;;;;;;7.00;3.17;;;;;;;-144.99;54.41;52126.06;5090376;28;20235;-75
2021/06/23 10:50:00;;;;;;;6.53;2.60;;;;;;;-144.99;53.47;52136.25;5090773;28;20225;-76
2021/06/23 10:52:38;;;;;;;9.83;2.73;;;;;;;-144.99;53.49;52121.97;5084520;28;20277;-75
2021/06/23 10:55:37;;;;;;;8.83;2.13;;;;;;;-144.99;53.02;52103.66;5086633;28;20223;-75
2021/06/23 10:58:07;;;;;;;7.30;2.53;;;;;;;-144.99;51.39;52126.06;5084021;28;20203;-76
2021/06/23 11:00:35;;;;;;;6.00;2.20;;;;;;;-144.99;52.87;52117.91;5092490;28;20302;-76
2021/06/23 11:03:04;;;;;;;7.23;1.63;;;;;;;-144.99;53.22;52170.91;5091008;28;20241;-76
2021/06/23 11:05:40;;;;;;;6.33;2.60;;;;;;;-144.99;51.97;52113.84;5090375;28;20236;-75
2021/06/23 11:08:29;;;;;;;6.97;2.10;;;;;;;-144.99;51.94;52119.94;5092521;28;20645;-76
2021/06/23 11:10:57;;;;;;;7.03;3.10;;;;;;;-144.99;51.69;52054.72;5091583;28;20298;-76
2021/06/23 11:13:27;;;;;;;5.77;2.30;;;;;;;-144.99;48.73;52103.66;5091686;28;20211;-76
2021/06/23 11:15:54;;;;;;;5.63;2.07;;;;;;;-144.99;49.82;52036.38;5095272;28;20238;-76
2021/06/23 11:18:30;;;;;;;5.77;2.50;;;;;;;-144.99;50.22;52111.78;5103730;28;20208;-75
2021/06/23 11:20:59;;;;;;;3.67;2.30;;;;;;;-144.99;50.17;52105.69;5089492;28;20678;-76
2021/06/23 11:23:46;;;;;;;5.53;2.00;;;;;;;-144.99;50.75;52130.13;5091184;28;20311;-76
2021/06/23 11:26:46;;;;;;;6.33;1.97;;;;;;;-144.99;49.97;52146.44;5087205;28;20295;-77
2021/06/23 11:29:33;;;;;;;5.63;2.03;;;;;;;-144.99;49.82;52195.34;5085024;28;20227;-77
2021/06/23 11:32:06;;;;;;;6.93;2.37;;;;;;;-144.99;50.45;52142.38;5096493;28;20205;-77
2021/06/23 11:34:53;;;;;;;6.07;2.17;;;;;;;-144.99;50.97;52107.72;5096322;28;20236;-77
2021/06/23 11:37:21;;;;;;;5.40;1.77;;;;;;;-144.99;51.15;52166.81;5091852;28;20216;-76
2021/06/23 11:39:48;;;;;;;6.57;2.40;;;;;;;-144.99;51.33;52158.66;5091203;28;20273;-76